sensor_id;sensor_type;location;lat;lon;timestamp;pressure;altitude;pressure_sealevel;temperature;humidity
61384;BME280;63511;49.346;8.798;2023-04-23T00:01:00;99566.81;;;16.17;84.14
61384;BME280;63511;49.346;8.798;2023-04-23T00:03:27;99573.09;;;16.02;85.04
61384;BME280;63511;49.346;8.798;2023-04-23T00:05:58;99570.88;;;16.11;84.96
61384;BME280;63511;49.346;8.798;2023-04-23T00:08:29;99559.47;;;16.00;86.29
61384;BME280;63511;49.346;8.798;2023-04-23T00:10:57;99568.31;;;15.86;86.04
61384;BME280;63511;49.346;8.798;2023-04-23T00:13:24;99565.88;;;15.89;85.83
61384;BME280;63511;49.346;8.798;2023-04-23T00:15:51;99565.66;;;15.57;86.12
61384;BME280;63511;49.346;8.798;2023-04-23T00:18:17;99570.53;;;15.77;85.52
61384;BME280;63511;49.346;8.798;2023-04-23T00:20:44;99563.34;;;15.65;85.54
61384;BME280;63511;49.346;8.798;2023-04-23T00:23:15;99570.38;;;15.48;86.23
61384;BME280;63511;49.346;8.798;2023-04-23T00:25:41;99571.69;;;15.61;85.69
61384;BME280;63511;49.346;8.798;2023-04-23T00:28:08;99571.25;;;15.49;85.85
61384;BME280;63511;49.346;8.798;2023-04-23T00:30:35;99572.00;;;15.46;85.80
61384;BME280;63511;49.346;8.798;2023-04-23T00:33:01;99563.56;;;15.71;85.26
61384;BME280;63511;49.346;8.798;2023-04-23T00:35:28;99561.66;;;15.65;85.34
61384;BME280;63511;49.346;8.798;2023-04-23T00:37:54;99564.38;;;15.70;84.58
61384;BME280;63511;49.346;8.798;2023-04-23T00:40:22;99567.59;;;15.64;85.65
61384;BME280;63511;49.346;8.798;2023-04-23T00:42:49;99573.56;;;15.43;86.15
61384;BME280;63511;49.346;8.798;2023-04-23T00:45:16;99572.00;;;15.70;85.13
61384;BME280;63511;49.346;8.798;2023-04-23T00:47:43;99576.28;;;15.71;85.69
61384;BME280;63511;49.346;8.798;2023-04-23T00:50:09;99571.28;;;15.50;85.99
61384;BME280;63511;49.346;8.798;2023-04-23T00:52:37;99571.28;;;15.50;86.79
61384;BME280;63511;49.346;8.798;2023-04-23T00:55:05;99574.06;;;15.32;87.05
61384;BME280;63511;49.346;8.798;2023-04-23T00:57:34;99576.22;;;15.22;87.07
61384;BME280;63511;49.346;8.798;2023-04-23T01:00:01;99564.38;;;15.22;87.07
61384;BME280;63511;49.346;8.798;2023-04-23T01:02:28;99571.69;;;14.91;88.03
61384;BME280;63511;49.346;8.798;2023-04-23T01:04:56;99570.31;;;15.23;87.46
61384;BME280;63511;49.346;8.798;2023-04-23T01:07:28;99570.91;;;15.16;87.88
61384;BME280;63511;49.346;8.798;2023-04-23T01:09:59;99570.25;;;15.21;87.45
61384;BME280;63511;49.346;8.798;2023-04-23T01:12:26;99574.94;;;15.33;87.65
61384;BME280;63511;49.346;8.798;2023-04-23T01:14:57;99572.56;;;15.38;86.47
61384;BME280;63511;49.346;8.798;2023-04-23T01:17:26;99571.47;;;15.09;87.66
61384;BME280;63511;49.346;8.798;2023-04-23T01:19:56;99568.13;;;15.10;87.64
61384;BME280;63511;49.346;8.798;2023-04-23T01:22:24;99572.66;;;15.41;86.63
61384;BME280;63511;49.346;8.798;2023-04-23T01:24:51;99580.81;;;15.32;87.27
61384;BME280;63511;49.346;8.798;2023-04-23T01:27:17;99578.50;;;15.38;86.21
61384;BME280;63511;49.346;8.798;2023-04-23T01:29:46;99582.81;;;15.41;87.03
61384;BME280;63511;49.346;8.798;2023-04-23T01:32:13;99584.72;;;15.00;89.29
61384;BME280;63511;49.346;8.798;2023-04-23T01:34:40;99580.50;;;15.23;88.09
61384;BME280;63511;49.346;8.798;2023-04-23T01:37:08;99575.09;;;15.38;87.71
61384;BME280;63511;49.346;8.798;2023-04-23T01:39:49;99582.94;;;15.44;86.75
61384;BME280;63511;49.346;8.798;2023-04-23T01:42:17;99581.00;;;15.37;87.63
61384;BME280;63511;49.346;8.798;2023-04-23T01:44:44;99575.56;;;15.27;87.71
61384;BME280;63511;49.346;8.798;2023-04-23T01:47:13;99582.50;;;15.31;87.58
61384;BME280;63511;49.346;8.798;2023-04-23T01:49:40;99584.25;;;15.10;88.11
61384;BME280;63511;49.346;8.798;2023-04-23T01:52:07;99587.44;;;15.05;89.33
61384;BME280;63511;49.346;8.798;2023-04-23T01:54:33;99587.44;;;15.05;89.10
61384;BME280;63511;49.346;8.798;2023-04-23T01:57:04;99586.47;;;15.01;88.97
61384;BME280;63511;49.346;8.798;2023-04-23T01:59:31;99591.78;;;14.85;90.49
61384;BME280;63511;49.346;8.798;2023-04-23T02:01:58;99595.88;;;15.04;89.58
61384;BME280;63511;49.346;8.798;2023-04-23T02:04:25;99596.75;;;15.04;89.61
61384;BME280;63511;49.346;8.798;2023-04-23T02:06:52;99593.63;;;14.89;90.85
61384;BME280;63511;49.346;8.798;2023-04-23T02:09:19;99594.31;;;14.85;90.89
61384;BME280;63511;49.346;8.798;2023-04-23T02:11:45;99593.75;;;14.92;90.13
61384;BME280;63511;49.346;8.798;2023-04-23T02:14:13;99593.28;;;14.80;91.84
61384;BME280;63511;49.346;8.798;2023-04-23T02:16:41;99604.78;;;14.93;90.81
61384;BME280;63511;49.346;8.798;2023-04-23T02:19:11;99601.28;;;14.68;91.58
61384;BME280;63511;49.346;8.798;2023-04-23T02:21:40;99605.22;;;14.82;92.09
61384;BME280;63511;49.346;8.798;2023-04-23T02:24:06;99605.41;;;14.87;91.49
61384;BME280;63511;49.346;8.798;2023-04-23T02:26:33;99593.78;;;15.16;89.46
61384;BME280;63511;49.346;8.798;2023-04-23T02:29:02;99598.72;;;14.89;90.68
61384;BME280;63511;49.346;8.798;2023-04-23T02:31:30;99588.19;;;14.80;90.58
61384;BME280;63511;49.346;8.798;2023-04-23T02:33:56;99593.16;;;14.99;91.04
61384;BME280;63511;49.346;8.798;2023-04-23T02:36:23;99589.47;;;14.91;90.53
61384;BME280;63511;49.346;8.798;2023-04-23T02:38:50;99591.72;;;14.83;91.55
61384;BME280;63511;49.346;8.798;2023-04-23T02:41:16;99597.66;;;14.84;91.26
61384;BME280;63511;49.346;8.798;2023-04-23T02:43:43;99597.09;;;14.91;91.94
61384;BME280;63511;49.346;8.798;2023-04-23T02:46:10;99600.34;;;14.66;92.38
61384;BME280;63511;49.346;8.798;2023-04-23T02:48:38;99603.63;;;14.84;91.57
61384;BME280;63511;49.346;8.798;2023-04-23T02:51:07;99601.44;;;14.71;92.16
61384;BME280;63511;49.346;8.798;2023-04-23T02:53:44;99599.66;;;14.91;91.45
61384;BME280;63511;49.346;8.798;2023-04-23T02:56:10;99597.78;;;14.87;91.55
61384;BME280;63511;49.346;8.798;2023-04-23T02:58:37;99599.97;;;14.78;92.28
61384;BME280;63511;49.346;8.798;2023-04-23T03:01:04;99594.19;;;14.60;91.91
61384;BME280;63511;49.346;8.798;2023-04-23T03:03:31;99592.69;;;14.65;92.41
61384;BME280;63511;49.346;8.798;2023-04-23T03:06:00;99597.13;;;14.93;91.66
61384;BME280;63511;49.346;8.798;2023-04-23T03:08:27;99590.16;;;14.87;90.67
61384;BME280;63511;49.346;8.798;2023-04-23T03:10:53;99583.16;;;15.04;89.90
61384;BME280;63511;49.346;8.798;2023-04-23T03:13:20;99591.81;;;14.64;92.21
61384;BME280;63511;49.346;8.798;2023-04-23T03:15:47;99596.06;;;14.86;91.47
61384;BME280;63511;49.346;8.798;2023-04-23T03:18:14;99590.81;;;14.81;91.48
61384;BME280;63511;49.346;8.798;2023-04-23T03:20:40;99593.34;;;14.81;91.26
61384;BME280;63511;49.346;8.798;2023-04-23T03:23:08;99581.94;;;14.72;90.71
61384;BME280;63511;49.346;8.798;2023-04-23T03:25:35;99591.78;;;14.85;90.45
61384;BME280;63511;49.346;8.798;2023-04-23T03:28:02;99586.41;;;15.00;88.99
61384;BME280;63511;49.346;8.798;2023-04-23T03:30:28;99597.44;;;14.78;90.98
61384;BME280;63511;49.346;8.798;2023-04-23T03:32:58;99598.56;;;15.07;89.41
61384;BME280;63511;49.346;8.798;2023-04-23T03:35:26;99594.97;;;14.79;90.66
61384;BME280;63511;49.346;8.798;2023-04-23T03:37:53;99597.44;;;14.78;90.02
61384;BME280;63511;49.346;8.798;2023-04-23T03:40:26;99599.44;;;15.09;87.97
61384;BME280;63511;49.346;8.798;2023-04-23T03:42:53;99596.44;;;15.19;87.32
61384;BME280;63511;49.346;8.798;2023-04-23T03:45:19;99593.31;;;15.26;85.73
61384;BME280;63511;49.346;8.798;2023-04-23T03:47:46;99601.50;;;15.41;85.92
61384;BME280;63511;49.346;8.798;2023-04-23T03:50:13;99605.53;;;15.12;85.74
61384;BME280;63511;49.346;8.798;2023-04-23T03:52:41;99606.97;;;15.28;85.71
61384;BME280;63511;49.346;8.798;2023-04-23T03:55:08;99609.78;;;15.13;85.26
61384;BME280;63511;49.346;8.798;2023-04-23T03:57:36;99612.22;;;14.88;86.81
61384;BME280;63511;49.346;8.798;2023-04-23T04:00:03;99615.41;;;14.82;87.21
61384;BME280;63511;49.346;8.798;2023-04-23T04:02:35;99602.78;;;15.08;86.95
61384;BME280;63511;49.346;8.798;2023-04-23T04:05:02;99625.22;;;14.73;87.21
61384;BME280;63511;49.346;8.798;2023-04-23T04:07:29;99614.72;;;14.86;86.46
61384;BME280;63511;49.346;8.798;2023-04-23T04:09:57;99601.16;;;14.86;86.07
61384;BME280;63511;49.346;8.798;2023-04-23T04:12:24;99603.72;;;14.65;87.11
61384;BME280;63511;49.346;8.798;2023-04-23T04:14:52;99607.69;;;15.02;85.88
61384;BME280;63511;49.346;8.798;2023-04-23T04:17:19;99612.19;;;15.55;82.92
61384;BME280;63511;49.346;8.798;2023-04-23T04:19:45;99607.22;;;15.58;82.35
61384;BME280;63511;49.346;8.798;2023-04-23T04:22:12;99604.91;;;15.42;82.98
61384;BME280;63511;49.346;8.798;2023-04-23T04:24:40;99608.50;;;15.47;83.03
61384;BME280;63511;49.346;8.798;2023-04-23T04:27:07;99620.09;;;15.39;83.32
61384;BME280;63511;49.346;8.798;2023-04-23T04:29:34;99622.09;;;15.25;83.85
61384;BME280;63511;49.346;8.798;2023-04-23T04:32:02;99623.06;;;15.28;84.37
61384;BME280;63511;49.346;8.798;2023-04-23T04:34:29;99632.19;;;15.22;84.15
61384;BME280;63511;49.346;8.798;2023-04-23T04:37:07;99627.09;;;15.46;83.44
61384;BME280;63511;49.346;8.798;2023-04-23T04:39:35;99626.16;;;15.42;82.88
61384;BME280;63511;49.346;8.798;2023-04-23T04:42:01;99623.69;;;15.21;84.40
61384;BME280;63511;49.346;8.798;2023-04-23T04:44:30;99623.97;;;15.51;82.83
61384;BME280;63511;49.346;8.798;2023-04-23T04:46:57;99618.38;;;15.61;82.06
61384;BME280;63511;49.346;8.798;2023-04-23T04:49:26;99624.81;;;15.52;82.89
61384;BME280;63511;49.346;8.798;2023-04-23T04:51:52;99625.91;;;15.58;82.88
61384;BME280;63511;49.346;8.798;2023-04-23T04:54:19;99618.19;;;15.11;84.74
61384;BME280;63511;49.346;8.798;2023-04-23T04:56:46;99620.25;;;15.43;83.47
61384;BME280;63511;49.346;8.798;2023-04-23T04:59:14;99625.63;;;14.84;85.82
61384;BME280;63511;49.346;8.798;2023-04-23T05:01:41;99616.59;;;15.37;82.61
61384;BME280;63511;49.346;8.798;2023-04-23T05:04:08;99617.88;;;15.25;83.54
61384;BME280;63511;49.346;8.798;2023-04-23T05:06:36;99623.81;;;15.02;84.88
61384;BME280;63511;49.346;8.798;2023-04-23T05:09:02;99619.78;;;15.09;84.81
61384;BME280;63511;49.346;8.798;2023-04-23T05:11:32;99628.22;;;15.30;84.43
61384;BME280;63511;49.346;8.798;2023-04-23T05:13:59;99630.13;;;15.13;85.13
61384;BME280;63511;49.346;8.798;2023-04-23T05:16:26;99636.09;;;15.14;84.78
61384;BME280;63511;49.346;8.798;2023-04-23T05:18:53;99639.97;;;15.04;85.30
61384;BME280;63511;49.346;8.798;2023-04-23T05:21:19;99643.72;;;15.14;85.43
61384;BME280;63511;49.346;8.798;2023-04-23T05:23:47;99644.72;;;15.17;85.53
61384;BME280;63511;49.346;8.798;2023-04-23T05:26:14;99639.44;;;15.35;85.31
61384;BME280;63511;49.346;8.798;2023-04-23T05:28:40;99639.44;;;15.35;84.17
61384;BME280;63511;49.346;8.798;2023-04-23T05:31:07;99630.59;;;15.03;85.10
61384;BME280;63511;49.346;8.798;2023-04-23T05:33:33;99632.81;;;15.16;84.24
61384;BME280;63511;49.346;8.798;2023-04-23T05:36:00;99639.03;;;15.47;83.66
61384;BME280;63511;49.346;8.798;2023-04-23T05:38:27;99627.19;;;15.25;83.47
61384;BME280;63511;49.346;8.798;2023-04-23T05:40:55;99638.47;;;15.09;83.41
61384;BME280;63511;49.346;8.798;2023-04-23T05:43:21;99632.69;;;15.58;83.82
61384;BME280;63511;49.346;8.798;2023-04-23T05:45:48;99633.56;;;15.58;82.68
61384;BME280;63511;49.346;8.798;2023-04-23T05:48:18;99634.50;;;15.40;84.06
61384;BME280;63511;49.346;8.798;2023-04-23T05:50:47;99637.50;;;15.28;83.69
61384;BME280;63511;49.346;8.798;2023-04-23T05:53:14;99631.47;;;15.48;82.76
61384;BME280;63511;49.346;8.798;2023-04-23T05:55:41;99639.72;;;15.43;82.88
61384;BME280;63511;49.346;8.798;2023-04-23T05:58:09;99636.50;;;15.24;84.44
61384;BME280;63511;49.346;8.798;2023-04-23T06:00:37;99627.16;;;15.69;82.88
61384;BME280;63511;49.346;8.798;2023-04-23T06:03:04;99625.88;;;14.90;85.82
61384;BME280;63511;49.346;8.798;2023-04-23T06:05:32;99635.69;;;15.25;84.94
61384;BME280;63511;49.346;8.798;2023-04-23T06:08:00;99633.94;;;15.47;84.75
61384;BME280;63511;49.346;8.798;2023-04-23T06:10:26;99634.41;;;15.37;84.80
61384;BME280;63511;49.346;8.798;2023-04-23T06:12:53;99637.06;;;15.40;83.96
61384;BME280;63511;49.346;8.798;2023-04-23T06:15:21;99629.50;;;15.41;84.44
61384;BME280;63511;49.346;8.798;2023-04-23T06:17:51;99636.63;;;15.27;84.05
61384;BME280;63511;49.346;8.798;2023-04-23T06:20:17;99628.00;;;15.70;82.77
61384;BME280;63511;49.346;8.798;2023-04-23T06:22:45;99631.25;;;15.66;82.46
61384;BME280;63511;49.346;8.798;2023-04-23T06:25:12;99628.28;;;15.78;82.33
61384;BME280;63511;49.346;8.798;2023-04-23T06:27:38;99624.66;;;15.71;83.22
61384;BME280;63511;49.346;8.798;2023-04-23T06:30:06;99629.44;;;15.40;82.79
61384;BME280;63511;49.346;8.798;2023-04-23T06:32:34;99634.56;;;15.87;81.70
61384;BME280;63511;49.346;8.798;2023-04-23T06:35:04;99625.09;;;15.83;81.27
61384;BME280;63511;49.346;8.798;2023-04-23T06:37:33;99617.53;;;15.86;81.41
61384;BME280;63511;49.346;8.798;2023-04-23T06:39:59;99620.66;;;15.78;82.37
61384;BME280;63511;49.346;8.798;2023-04-23T06:42:26;99619.56;;;15.71;81.96
61384;BME280;63511;49.346;8.798;2023-04-23T06:44:53;99610.44;;;16.27;80.34
61384;BME280;63511;49.346;8.798;2023-04-23T06:47:20;99619.63;;;15.72;81.82
61384;BME280;63511;49.346;8.798;2023-04-23T06:49:48;99616.16;;;15.94;81.47
61384;BME280;63511;49.346;8.798;2023-04-23T06:52:14;99613.19;;;16.07;81.67
61384;BME280;63511;49.346;8.798;2023-04-23T06:54:44;99618.56;;;16.16;80.83
61384;BME280;63511;49.346;8.798;2023-04-23T06:57:10;99615.69;;;16.06;81.20
61384;BME280;63511;49.346;8.798;2023-04-23T06:59:36;99608.50;;;15.94;80.19
61384;BME280;63511;49.346;8.798;2023-04-23T07:02:03;99609.16;;;15.89;79.22
61384;BME280;63511;49.346;8.798;2023-04-23T07:04:30;99604.13;;;16.15;77.50
61384;BME280;63511;49.346;8.798;2023-04-23T07:06:58;99617.38;;;15.80;81.89
61384;BME280;63511;49.346;8.798;2023-04-23T07:09:25;99615.56;;;15.78;80.44
61384;BME280;63511;49.346;8.798;2023-04-23T07:11:52;99612.00;;;15.98;80.88
61384;BME280;63511;49.346;8.798;2023-04-23T07:14:19;99607.13;;;16.04;80.10
61384;BME280;63511;49.346;8.798;2023-04-23T07:16:46;99601.66;;;16.19;79.43
61384;BME280;63511;49.346;8.798;2023-04-23T07:19:12;99598.75;;;15.83;79.99
61384;BME280;63511;49.346;8.798;2023-04-23T07:21:39;99598.06;;;16.12;79.60
61384;BME280;63511;49.346;8.798;2023-04-23T07:24:07;99599.94;;;15.92;81.13
61384;BME280;63511;49.346;8.798;2023-04-23T07:26:34;99609.28;;;15.68;79.03
61384;BME280;63511;49.346;8.798;2023-04-23T07:29:04;99595.69;;;15.67;81.90
61384;BME280;63511;49.346;8.798;2023-04-23T07:31:32;99589.38;;;16.32;78.93
61384;BME280;63511;49.346;8.798;2023-04-23T07:33:58;99582.09;;;16.17;78.30
61384;BME280;63511;49.346;8.798;2023-04-23T07:36:31;99581.16;;;16.14;79.18
61384;BME280;63511;49.346;8.798;2023-04-23T07:38:57;99581.06;;;16.11;79.75
61384;BME280;63511;49.346;8.798;2023-04-23T07:41:27;99584.88;;;15.98;79.46
61384;BME280;63511;49.346;8.798;2023-04-23T07:43:57;99569.59;;;15.98;78.61
61384;BME280;63511;49.346;8.798;2023-04-23T07:46:24;99575.16;;;16.39;77.60
61384;BME280;63511;49.346;8.798;2023-04-23T07:48:50;99572.75;;;16.43;76.77
61384;BME280;63511;49.346;8.798;2023-04-23T07:51:18;99575.94;;;16.36;76.92
61384;BME280;63511;49.346;8.798;2023-04-23T07:53:46;99568.81;;;16.26;76.06
61384;BME280;63511;49.346;8.798;2023-04-23T07:56:15;99568.44;;;16.41;75.50
61384;BME280;63511;49.346;8.798;2023-04-23T07:58:43;99568.69;;;16.23;74.30
61384;BME280;63511;49.346;8.798;2023-04-23T08:01:11;99571.69;;;16.62;73.78
61384;BME280;63511;49.346;8.798;2023-04-23T08:03:39;99567.19;;;16.82;74.66
61384;BME280;63511;49.346;8.798;2023-04-23T08:06:06;99567.75;;;17.02;71.88
61384;BME280;63511;49.346;8.798;2023-04-23T08:08:33;99563.88;;;17.14;71.22
61384;BME280;63511;49.346;8.798;2023-04-23T08:11:00;99557.53;;;17.30;73.94
61384;BME280;63511;49.346;8.798;2023-04-23T08:13:27;99562.22;;;17.15;72.24
61384;BME280;63511;49.346;8.798;2023-04-23T08:15:54;99558.34;;;17.29;71.28
61384;BME280;63511;49.346;8.798;2023-04-23T08:18:23;99559.34;;;17.04;69.60
61384;BME280;63511;49.346;8.798;2023-04-23T08:20:50;99559.50;;;17.10;70.87
61384;BME280;63511;49.346;8.798;2023-04-23T08:23:20;99560.34;;;17.09;70.74
61384;BME280;63511;49.346;8.798;2023-04-23T08:25:46;99554.09;;;17.59;68.94
61384;BME280;63511;49.346;8.798;2023-04-23T08:28:13;99543.38;;;17.72;69.60
61384;BME280;63511;49.346;8.798;2023-04-23T08:30:40;99550.16;;;17.40;67.03
61384;BME280;63511;49.346;8.798;2023-04-23T08:33:10;99540.75;;;18.04;68.69
61384;BME280;63511;49.346;8.798;2023-04-23T08:35:37;99538.66;;;18.22;69.28
61384;BME280;63511;49.346;8.798;2023-04-23T08:38:04;99529.59;;;18.00;65.50
61384;BME280;63511;49.346;8.798;2023-04-23T08:40:31;99536.34;;;17.98;68.06
61384;BME280;63511;49.346;8.798;2023-04-23T08:43:00;99538.09;;;17.35;68.59
61384;BME280;63511;49.346;8.798;2023-04-23T08:45:27;99542.97;;;17.27;70.16
61384;BME280;63511;49.346;8.798;2023-04-23T08:47:57;99538.88;;;17.03;68.84
61384;BME280;63511;49.346;8.798;2023-04-23T08:50:25;99536.47;;;16.79;69.30
61384;BME280;63511;49.346;8.798;2023-04-23T08:52:55;99531.69;;;16.89;69.55
61384;BME280;63511;49.346;8.798;2023-04-23T08:55:22;99535.53;;;17.35;69.07
61384;BME280;63511;49.346;8.798;2023-04-23T08:57:57;99533.78;;;17.64;67.91
61384;BME280;63511;49.346;8.798;2023-04-23T09:00:27;99532.59;;;17.51;67.38
61384;BME280;63511;49.346;8.798;2023-04-23T09:02:55;99523.91;;;17.76;68.28
61384;BME280;63511;49.346;8.798;2023-04-23T09:05:21;99528.84;;;18.04;66.20
61384;BME280;63511;49.346;8.798;2023-04-23T09:07:57;99525.38;;;18.37;64.56
61384;BME280;63511;49.346;8.798;2023-04-23T09:10:24;99526.81;;;18.25;64.74
61384;BME280;63511;49.346;8.798;2023-04-23T09:12:57;99522.41;;;18.20;64.98
61384;BME280;63511;49.346;8.798;2023-04-23T09:15:24;99513.16;;;18.61;62.38
61384;BME280;63511;49.346;8.798;2023-04-23T09:17:51;99518.34;;;18.64;62.92
61384;BME280;63511;49.346;8.798;2023-04-23T09:20:18;99516.97;;;18.80;61.89
61384;BME280;63511;49.346;8.798;2023-04-23T09:22:45;99506.19;;;19.38;65.95
61384;BME280;63511;49.346;8.798;2023-04-23T09:25:14;99511.44;;;19.00;61.54
61384;BME280;63511;49.346;8.798;2023-04-23T09:27:41;99500.03;;;19.28;61.27
61384;BME280;63511;49.346;8.798;2023-04-23T09:30:08;99498.28;;;19.26;62.58
61384;BME280;63511;49.346;8.798;2023-04-23T09:32:36;99488.81;;;19.22;60.18
61384;BME280;63511;49.346;8.798;2023-04-23T09:35:03;99491.00;;;19.45;60.42
61384;BME280;63511;49.346;8.798;2023-04-23T09:37:31;99476.22;;;19.32;61.06
61384;BME280;63511;49.346;8.798;2023-04-23T09:39:58;99474.00;;;19.05;60.65
61384;BME280;63511;49.346;8.798;2023-04-23T09:42:27;99476.91;;;19.22;60.84
61384;BME280;63511;49.346;8.798;2023-04-23T09:44:57;99469.25;;;19.72;59.89
61384;BME280;63511;49.346;8.798;2023-04-23T09:47:24;99466.56;;;19.63;60.46
61384;BME280;63511;49.346;8.798;2023-04-23T09:49:51;99467.81;;;18.94;58.42
61384;BME280;63511;49.346;8.798;2023-04-23T09:52:22;99466.94;;;19.37;57.39
61384;BME280;63511;49.346;8.798;2023-04-23T09:54:49;99456.50;;;19.75;57.12
61384;BME280;63511;49.346;8.798;2023-04-23T09:57:15;99466.38;;;19.08;57.70
61384;BME280;63511;49.346;8.798;2023-04-23T09:59:52;99461.44;;;19.63;58.45
61384;BME280;63511;49.346;8.798;2023-04-23T10:02:25;99447.47;;;20.55;58.53
61384;BME280;63511;49.346;8.798;2023-04-23T10:05:13;99448.22;;;19.41;57.63
61384;BME280;63511;49.346;8.798;2023-04-23T10:07:42;99446.59;;;19.45;57.83
61384;BME280;63511;49.346;8.798;2023-04-23T10:10:11;99452.38;;;19.83;57.56
61384;BME280;63511;49.346;8.798;2023-04-23T10:12:41;99445.81;;;20.02;56.67
61384;BME280;63511;49.346;8.798;2023-04-23T10:15:10;99431.69;;;20.29;53.91
61384;BME280;63511;49.346;8.798;2023-04-23T10:17:42;99429.25;;;19.80;55.60
61384;BME280;63511;49.346;8.798;2023-04-23T10:20:11;99428.06;;;19.58;54.99
61384;BME280;63511;49.346;8.798;2023-04-23T10:22:38;99422.03;;;20.12;54.79
61384;BME280;63511;49.346;8.798;2023-04-23T10:25:08;99426.00;;;20.49;55.37
61384;BME280;63511;49.346;8.798;2023-04-23T10:27:36;99426.41;;;20.82;54.29
61384;BME280;63511;49.346;8.798;2023-04-23T10:30:04;99417.63;;;20.02;53.55
61384;BME280;63511;49.346;8.798;2023-04-23T10:32:38;99427.19;;;20.13;54.78
61384;BME280;63511;49.346;8.798;2023-04-23T10:35:08;99411.56;;;20.58;52.12
61384;BME280;63511;49.346;8.798;2023-04-23T10:37:35;99417.22;;;19.76;54.51
61384;BME280;63511;49.346;8.798;2023-04-23T10:40:03;99400.00;;;20.24;53.88
61384;BME280;63511;49.346;8.798;2023-04-23T10:42:33;99398.88;;;20.69;54.61
61384;BME280;63511;49.346;8.798;2023-04-23T10:45:00;99393.47;;;20.48;53.23
61384;BME280;63511;49.346;8.798;2023-04-23T10:47:26;99386.38;;;20.98;52.10
61384;BME280;63511;49.346;8.798;2023-04-23T10:49:57;99383.75;;;20.92;54.02
61384;BME280;63511;49.346;8.798;2023-04-23T10:52:42;99381.09;;;21.82;47.51
61384;BME280;63511;49.346;8.798;2023-04-23T10:55:15;99363.31;;;21.05;48.30
61384;BME280;63511;49.346;8.798;2023-04-23T10:57:53;99375.94;;;20.81;50.56
61384;BME280;63511;49.346;8.798;2023-04-23T11:00:20;99378.94;;;21.25;52.67
61384;BME280;63511;49.346;8.798;2023-04-23T11:02:48;99370.00;;;20.87;54.67
61384;BME280;63511;49.346;8.798;2023-04-23T11:05:17;99370.00;;;20.19;53.33
61384;BME280;63511;49.346;8.798;2023-04-23T11:10:25;99375.59;;;19.90;50.27
61384;BME280;63511;49.346;8.798;2023-04-23T11:12:54;99375.66;;;19.95;52.35
61384;BME280;63511;49.346;8.798;2023-04-23T11:15:22;99368.13;;;20.73;52.29
61384;BME280;63511;49.346;8.798;2023-04-23T11:17:59;99363.50;;;21.19;52.72
61384;BME280;63511;49.346;8.798;2023-04-23T11:20:28;99363.78;;;20.66;51.96
61384;BME280;63511;49.346;8.798;2023-04-23T11:22:57;99364.53;;;20.56;53.70
61384;BME280;63511;49.346;8.798;2023-04-23T11:25:24;99357.28;;;21.00;52.10
61384;BME280;63511;49.346;8.798;2023-04-23T11:27:52;99348.50;;;20.75;53.00
61384;BME280;63511;49.346;8.798;2023-04-23T11:30:20;99349.75;;;21.15;48.74
61384;BME280;63511;49.346;8.798;2023-04-23T11:32:47;99343.84;;;21.26;47.56
61384;BME280;63511;49.346;8.798;2023-04-23T11:35:14;99333.75;;;21.47;47.79
61384;BME280;63511;49.346;8.798;2023-04-23T11:37:42;99338.06;;;21.52;46.30
61384;BME280;63511;49.346;8.798;2023-04-23T11:40:12;99335.28;;;21.24;50.79
61384;BME280;63511;49.346;8.798;2023-04-23T11:42:43;99342.25;;;21.38;50.28
61384;BME280;63511;49.346;8.798;2023-04-23T11:45:14;99335.03;;;21.01;50.93
61384;BME280;63511;49.346;8.798;2023-04-23T11:47:40;99331.91;;;21.31;48.54
61384;BME280;63511;49.346;8.798;2023-04-23T11:50:07;99330.38;;;21.54;49.30
61384;BME280;63511;49.346;8.798;2023-04-23T11:52:37;99314.53;;;21.04;48.38
61384;BME280;63511;49.346;8.798;2023-04-23T11:55:06;99319.00;;;21.18;46.29
61384;BME280;63511;49.346;8.798;2023-04-23T11:57:33;99320.69;;;21.18;49.06
61384;BME280;63511;49.346;8.798;2023-04-23T12:00:08;99319.06;;;21.31;50.81
61384;BME280;63511;49.346;8.798;2023-04-23T12:02:51;99307.34;;;21.65;50.62
61384;BME280;63511;49.346;8.798;2023-04-23T12:05:21;99297.06;;;21.69;49.07
61384;BME280;63511;49.346;8.798;2023-04-23T12:07:49;99294.56;;;21.78;49.94
61384;BME280;63511;49.346;8.798;2023-04-23T12:10:20;99293.88;;;22.05;49.62
61384;BME280;63511;49.346;8.798;2023-04-23T12:12:50;99294.28;;;21.37;51.04
61384;BME280;63511;49.346;8.798;2023-04-23T12:15:17;99281.06;;;22.25;49.68
61384;BME280;63511;49.346;8.798;2023-04-23T12:17:47;99273.28;;;22.05;47.70
61384;BME280;63511;49.346;8.798;2023-04-23T12:20:15;99264.69;;;21.97;48.36
61384;BME280;63511;49.346;8.798;2023-04-23T12:22:41;99261.31;;;22.06;49.18
61384;BME280;63511;49.346;8.798;2023-04-23T12:25:08;99261.06;;;21.65;49.97
61384;BME280;63511;49.346;8.798;2023-04-23T12:27:40;99258.22;;;21.20;51.69
61384;BME280;63511;49.346;8.798;2023-04-23T12:30:07;99251.78;;;21.89;49.15
61384;BME280;63511;49.346;8.798;2023-04-23T12:32:34;99257.09;;;22.30;48.45
61384;BME280;63511;49.346;8.798;2023-04-23T12:35:03;99250.16;;;22.02;49.08
61384;BME280;63511;49.346;8.798;2023-04-23T12:37:36;99251.88;;;22.14;46.89
61384;BME280;63511;49.346;8.798;2023-04-23T12:40:03;99250.16;;;22.13;48.13
61384;BME280;63511;49.346;8.798;2023-04-23T12:42:35;99258.56;;;21.77;47.58
61384;BME280;63511;49.346;8.798;2023-04-23T12:45:09;99241.88;;;21.14;47.13
61384;BME280;63511;49.346;8.798;2023-04-23T12:47:40;99235.16;;;21.27;47.69
61384;BME280;63511;49.346;8.798;2023-04-23T12:50:09;99236.09;;;21.38;49.14
61384;BME280;63511;49.346;8.798;2023-04-23T12:52:36;99234.34;;;21.37;48.46
61384;BME280;63511;49.346;8.798;2023-04-23T12:55:14;99224.97;;;21.42;46.54
61384;BME280;63511;49.346;8.798;2023-04-23T12:57:41;99226.72;;;21.44;45.99
61384;BME280;63511;49.346;8.798;2023-04-23T13:00:10;99214.19;;;22.25;45.61
61384;BME280;63511;49.346;8.798;2023-04-23T13:02:37;99212.44;;;22.06;46.15
61384;BME280;63511;49.346;8.798;2023-04-23T13:05:04;99206.34;;;21.90;45.14
61384;BME280;63511;49.346;8.798;2023-04-23T13:07:32;99207.06;;;21.57;46.89